createdAt,value
2023-02-16T00:00:51.821Z,102314.19
2023-02-16T00:05:55.594Z,102311.59
2023-02-16T00:11:17.034Z,102306.34
2023-02-16T00:16:24.080Z,102314.81
2023-02-16T00:21:27.824Z,102316.72
2023-02-16T00:26:34.573Z,102313.91
2023-02-16T00:31:39.842Z,102314.16
2023-02-16T00:36:43.656Z,102307.22
2023-02-16T00:41:53.996Z,102298.75
2023-02-16T00:47:02.260Z,102296.44
2023-02-16T00:52:25.785Z,102290.91
2023-02-16T00:57:35.093Z,102297.22
2023-02-16T01:02:40.470Z,102301.13
2023-02-16T01:08:01.924Z,102300.28
2023-02-16T01:13:06.290Z,102287.78
2023-02-16T01:18:14.969Z,102288.78
2023-02-16T01:23:19.849Z,102277.37
2023-02-16T01:28:25.952Z,102279.62
2023-02-16T01:33:31.096Z,102271.81
2023-02-16T01:38:36.048Z,102261.16
2023-02-16T01:43:47.678Z,102263.72
2023-02-16T01:48:54.925Z,102258.44
2023-02-16T01:54:07.489Z,102267.69
2023-02-16T01:59:22.471Z,102258.44
2023-02-16T02:04:55.634Z,102258.84
2023-02-16T02:10:04.218Z,102248.97
2023-02-16T02:15:09.231Z,102251.78
2023-02-16T02:20:22.539Z,102237.13
2023-02-16T02:25:48.345Z,102234.03
2023-02-16T02:31:03.348Z,102225.06
2023-02-16T02:36:19.962Z,102228.94
2023-02-16T02:41:47.288Z,102220.97
2023-02-16T02:46:53.555Z,102218.41
2023-02-16T02:51:58.421Z,102218.03
2023-02-16T02:57:25.227Z,102214.81
2023-02-16T03:02:33.928Z,102208.53
2023-02-16T03:07:48.581Z,102191.69
2023-02-16T03:12:52.670Z,102205.66
2023-02-16T03:18:18.266Z,102186.44
2023-02-16T03:23:39.755Z,102182.06
2023-02-16T03:29:03.258Z,102177.56
2023-02-16T03:34:09.338Z,102184.62
2023-02-16T03:39:13.539Z,102185.38
2023-02-16T03:44:17.348Z,102179.63
2023-02-16T03:49:22.485Z,102180.25
2023-02-16T03:54:26.280Z,102176.78
2023-02-16T03:59:30.167Z,102176.06
2023-02-16T04:04:35.329Z,102193.13
2023-02-16T04:09:39.307Z,102193.88
2023-02-16T04:14:43.830Z,102179.03
2023-02-16T04:19:49.031Z,102210.16
2023-02-16T04:24:52.854Z,102199.56
2023-02-16T04:29:56.740Z,102188.00
2023-02-16T04:35:02.053Z,102182.47
2023-02-16T04:40:07.987Z,102195.31
2023-02-16T04:45:12.709Z,102197.09
2023-02-16T04:50:18.001Z,102174.00
2023-02-16T04:55:21.788Z,102186.56
2023-02-16T05:00:25.950Z,102190.19
2023-02-16T05:05:31.660Z,102185.28
2023-02-16T05:10:35.393Z,102176.69
2023-02-16T05:15:39.277Z,102191.84
2023-02-16T05:21:04.250Z,102178.38
2023-02-16T05:26:08.160Z,102177.34
2023-02-16T05:31:12.053Z,102169.63
2023-02-16T05:36:17.429Z,102175.03
2023-02-16T05:41:30.051Z,102165.94
2023-02-16T05:46:36.572Z,102166.81
2023-02-16T05:51:41.932Z,102170.56
2023-02-16T05:56:46.468Z,102165.28
2023-02-16T06:01:52.247Z,102163.22
2023-02-16T06:06:59.988Z,102149.63
2023-02-16T06:12:03.758Z,102152.84
2023-02-16T06:17:07.507Z,102155.28
2023-02-16T06:22:12.640Z,102175.19
2023-02-16T06:27:16.360Z,102182.91
2023-02-16T06:32:20.217Z,102175.56
2023-02-16T06:37:25.530Z,102181.00
2023-02-16T06:42:29.235Z,102177.25
2023-02-16T06:47:32.940Z,102190.72
2023-02-16T06:52:38.425Z,102210.78
2023-02-16T06:57:42.194Z,102204.84
2023-02-16T07:02:46.709Z,102208.84
2023-02-16T07:07:52.075Z,102198.56
2023-02-16T07:12:55.767Z,102201.78
2023-02-16T07:17:59.472Z,102197.03
2023-02-16T07:23:04.599Z,102202.16
2023-02-16T07:28:08.361Z,102207.53
2023-02-16T07:33:12.253Z,102196.50
2023-02-16T07:38:17.685Z,102190.09
2023-02-16T07:43:21.421Z,102198.16
2023-02-16T07:48:25.205Z,102198.06
2023-02-16T07:53:30.424Z,102210.75
2023-02-16T07:58:34.106Z,102214.13
2023-02-16T08:03:38.223Z,102206.91
2023-02-16T08:08:44.623Z,102222.03
2023-02-16T08:13:49.027Z,102223.84
2023-02-16T08:18:53.740Z,102226.91
2023-02-16T08:24:01.074Z,102234.00
2023-02-16T08:29:06.695Z,102243.09
2023-02-16T08:34:11.083Z,102234.59
2023-02-16T08:39:17.998Z,102235.72
2023-02-16T08:44:23.867Z,102233.03
2023-02-16T08:49:28.336Z,102234.31
2023-02-16T08:54:33.498Z,102237.34
2023-02-16T08:59:37.298Z,102250.13
2023-02-16T09:04:41.326Z,102258.59
2023-02-16T09:09:46.540Z,102260.13
2023-02-16T09:14:50.292Z,102263.81
2023-02-16T09:19:54.018Z,102261.16
2023-02-16T09:24:59.203Z,102257.00
2023-02-16T09:30:03.003Z,102254.81
2023-02-16T09:35:07.690Z,102260.31
2023-02-16T09:40:14.700Z,102259.94
2023-02-16T09:45:21.936Z,102250.94
2023-02-16T09:50:52.204Z,102248.41
2023-02-16T09:55:59.668Z,102266.12
2023-02-16T10:01:13.195Z,102275.00
2023-02-16T10:06:34.963Z,102273.87
2023-02-16T10:11:49.087Z,102257.94
2023-02-16T10:16:58.241Z,102262.91
2023-02-16T10:22:06.848Z,102255.59
2023-02-16T10:27:16.881Z,102266.34
2023-02-16T10:32:29.284Z,102263.56
2023-02-16T10:37:45.810Z,102266.53
2023-02-16T10:42:56.446Z,102276.41
2023-02-16T10:48:01.246Z,102272.44
2023-02-16T10:53:10.649Z,102270.47
2023-02-16T10:58:22.448Z,102260.87
2023-02-16T11:03:31.794Z,102267.28
2023-02-16T11:08:49.064Z,102250.28
2023-02-16T11:14:01.304Z,102246.87
2023-02-16T11:19:08.800Z,102243.44
2023-02-16T11:24:24.254Z,102242.31
2023-02-16T11:29:29.737Z,102226.75
2023-02-16T11:34:35.749Z,102215.25
2023-02-16T11:39:42.370Z,102211.94
2023-02-16T11:44:53.820Z,102199.34
2023-02-16T11:50:20.357Z,102188.00
2023-02-16T11:55:28.322Z,102190.34
2023-02-16T12:00:34.614Z,102183.84
2023-02-16T12:05:51.864Z,102181.94
2023-02-16T12:11:08.462Z,102176.97
2023-02-16T12:16:26.694Z,102178.16
2023-02-16T12:21:36.497Z,102178.87
2023-02-16T12:26:46.709Z,102146.91
2023-02-16T12:32:14.377Z,102133.56
2023-02-16T12:37:25.841Z,102137.03
2023-02-16T12:42:45.217Z,102120.81
2023-02-16T12:47:56.517Z,102115.34
2023-02-16T12:53:09.320Z,102104.63
2023-02-16T12:58:20.902Z,102095.75
2023-02-16T13:03:35.572Z,102083.12
2023-02-16T13:08:45.386Z,102077.28
2023-02-16T13:13:52.296Z,102084.72
2023-02-16T13:18:57.563Z,102090.69
2023-02-16T13:24:09.593Z,102083.38
2023-02-16T13:29:45.174Z,102072.03
2023-02-16T13:35:25.480Z,102067.97
2023-02-16T13:40:45.952Z,102068.88
2023-02-16T13:45:54.129Z,102049.25
2023-02-16T13:50:59.553Z,102042.03
2023-02-16T13:56:22.039Z,102037.28
2023-02-16T14:01:43.985Z,102019.28
2023-02-16T14:06:47.758Z,102032.22
2023-02-16T14:12:15.399Z,102023.59
2023-02-16T14:17:27.041Z,102013.16
2023-02-16T14:22:35.791Z,102006.16
2023-02-16T14:27:51.468Z,102010.03
2023-02-16T14:33:00.366Z,101996.97
2023-02-16T14:38:06.938Z,101995.44
2023-02-16T14:43:25.029Z,101984.31
2023-02-16T14:49:17.240Z,101980.81
2023-02-16T14:54:52.448Z,101972.03
2023-02-16T15:00:02.793Z,101980.09
2023-02-16T15:05:17.782Z,101968.09
2023-02-16T15:10:27.146Z,101970.19
2023-02-16T15:15:44.938Z,101985.19
2023-02-16T15:20:53.027Z,101977.22
2023-02-16T15:25:59.706Z,101973.91
2023-02-16T15:31:07.745Z,101974.06
2023-02-16T15:36:14.160Z,101961.34
2023-02-16T15:41:27.823Z,101967.22
2023-02-16T15:46:36.026Z,101972.59
2023-02-16T15:51:40.949Z,101986.72
2023-02-16T15:56:47.165Z,101988.88
2023-02-16T16:01:58.956Z,101993.16
2023-02-16T16:07:04.707Z,101997.97
2023-02-16T16:12:11.971Z,101996.00
2023-02-16T16:17:20.736Z,102001.44
2023-02-16T16:22:34.462Z,101998.69
2023-02-16T16:27:38.374Z,101998.81
2023-02-16T16:32:43.771Z,101992.31
2023-02-16T16:37:52.412Z,101992.25
2023-02-16T16:43:18.809Z,101990.13
2023-02-16T16:48:29.580Z,101988.12
2023-02-16T16:53:41.688Z,101985.19
2023-02-16T16:58:49.494Z,101977.91
2023-02-16T17:03:54.800Z,101983.31
2023-02-16T17:08:58.612Z,102000.31
2023-02-16T17:14:08.545Z,101986.09
2023-02-16T17:19:15.757Z,101971.78
2023-02-16T17:24:22.637Z,101964.72
2023-02-16T17:29:26.456Z,101956.34
2023-02-16T17:34:31.721Z,101956.53
2023-02-16T17:39:35.999Z,101960.81
2023-02-16T17:44:39.896Z,101961.66
2023-02-16T17:49:45.446Z,101971.69
2023-02-16T17:54:49.179Z,101948.31
2023-02-16T17:59:52.968Z,101947.34
2023-02-16T18:04:58.140Z,101958.28
2023-02-16T18:10:02.087Z,101963.03
2023-02-16T18:15:06.199Z,101973.78
2023-02-16T18:20:15.812Z,101970.78
2023-02-16T18:25:19.749Z,101963.34
2023-02-16T18:30:23.905Z,101970.09
2023-02-16T18:35:29.103Z,101965.75
2023-02-16T18:40:32.913Z,101957.97
2023-02-16T18:45:38.371Z,101958.19
2023-02-16T18:50:43.510Z,101956.50
2023-02-16T18:55:47.222Z,101947.47
2023-02-16T19:00:51.130Z,101956.78
2023-02-16T19:05:56.250Z,101960.06
2023-02-16T19:10:59.990Z,101960.16
2023-02-16T19:16:04.183Z,101969.13
2023-02-16T19:21:11.698Z,101977.34
2023-02-16T19:26:17.296Z,101961.56
2023-02-16T19:31:23.069Z,101973.19
2023-02-16T19:36:32.028Z,101986.22
2023-02-16T19:41:38.511Z,101982.13
2023-02-16T19:46:43.237Z,101986.22
2023-02-16T19:51:48.798Z,101992.84
2023-02-16T19:56:54.103Z,101993.84
2023-02-16T20:01:58.978Z,101996.94
2023-02-16T20:07:05.077Z,101990.19
2023-02-16T20:12:09.110Z,101992.16
2023-02-16T20:17:12.896Z,101994.03
2023-02-16T20:22:17.967Z,101992.47
2023-02-16T20:27:21.731Z,101990.06
2023-02-16T20:32:26.500Z,101983.00
2023-02-16T20:37:31.546Z,101984.22
2023-02-16T20:42:35.394Z,101976.19
2023-02-16T20:47:40.275Z,101963.16
2023-02-16T20:52:45.449Z,101973.28
2023-02-16T20:57:49.205Z,101973.28
2023-02-16T21:02:54.220Z,101964.94
2023-02-16T21:08:01.761Z,101972.59
2023-02-16T21:13:05.577Z,101972.81
2023-02-16T21:18:10.522Z,101978.66
2023-02-16T21:23:15.607Z,101963.56
2023-02-16T21:28:19.455Z,101978.66
2023-02-16T21:33:25.335Z,101967.84
2023-02-16T21:38:30.396Z,101978.34
2023-02-16T21:43:34.146Z,101969.91
2023-02-16T21:48:47.155Z,101964.25
2023-02-16T21:53:53.265Z,101971.69
2023-02-16T21:58:57.671Z,101975.41
2023-02-16T22:04:02.276Z,101970.50
2023-02-16T22:09:09.596Z,101979.06
2023-02-16T22:14:13.729Z,101962.97
2023-02-16T22:19:19.376Z,101946.47
2023-02-16T22:24:24.498Z,101942.88
2023-02-16T22:29:28.209Z,101928.56
2023-02-16T22:34:32.090Z,101935.53
2023-02-16T22:39:37.181Z,101933.62
2023-02-16T22:44:41.329Z,101929.38
2023-02-16T22:49:45.114Z,101921.81
2023-02-16T22:54:52.624Z,101927.78
2023-02-16T22:59:56.351Z,101922.00
2023-02-16T23:05:00.529Z,101935.81
2023-02-16T23:10:06.567Z,101937.31
2023-02-16T23:15:11.183Z,101915.13
2023-02-16T23:20:14.952Z,101922.00
2023-02-16T23:25:35.608Z,101937.78
2023-02-16T23:30:43.357Z,101927.44
2023-02-16T23:35:47.123Z,101931.56
2023-02-16T23:40:58.165Z,101935.31
2023-02-16T23:46:02.989Z,101943.06
2023-02-16T23:51:07.643Z,101926.06
2023-02-16T23:56:15.423Z,101920.69
